Terminal Aerodrome Forecast
Issued by NWS

Home | Current Version | Previous Version | Graphics & Text | Print | Product List | Glossary On
Versions: 1 2 3 4 5 6 7 8 9 10 11 12 13 14 15 16 17 18 19 20 21 22
000
FTUS43 KGRB 240400 AAA
TAFAUW
TAF AMD
KAUW 240413Z 2404/2424 35003KT 3SM BR OVC010
      TEMPO 2404/2406 2SM -SNDZ BR OVC005
     FM240600 35004KT 4SM BR OVC006
      TEMPO 2406/2408 1SM -DZ BR OVC002
     FM241600 36005KT 4SM -SN BR SCT005 OVC010
     FM241900 35008KT P6SM -SN SCT008 OVC015=

USA.gov is the U.S. government's official web portal to all federal, state and local government web resources and services.